Time;durP1;ratioP1;P1;durP2;ratioP2;P2;SDS_P1;SDS_P2;PMS_P1;PMS_P2;Temp;Humidity;BMP_temperature;BMP_pressure;BME280_temperature;BME280_humidity;BME280_pressure;Samples;Min_cycle;Max_cycle;Signal;HPM_P1;HPM_P2
2022/04/04 00:00:54;;;;;;;;;;;;;;;;;;4988420;28;128606;-68
2022/04/04 00:03:20;;;;;;;;;;;;;;;;;;4983144;28;135017;-68
2022/04/04 00:05:48;;;;;;;;;;;;;;;;;;4986819;28;108147;-68
2022/04/04 00:08:14;;;;;;;;;;;;;;;;;;4984463;28;106008;-68
2022/04/04 00:10:40;;;;;;;;;;;;;;;;;;4988971;28;137309;-69
2022/04/04 00:13:06;;;;;;;;;;;;;;;;;;4983708;28;138575;-69
2022/04/04 00:15:33;;;;;;;;;;;;;;;;;;4969615;28;117737;-68
2022/04/04 00:17:59;;;;;;;;;;;;;;;;;;4981835;28;135799;-68
2022/04/04 00:20:27;;;;;;;;;;;;;;;;;;4992031;28;107734;-68
2022/04/04 00:22:53;;;;;;;;;;;;;;;;;;4985113;28;135912;-68
2022/04/04 00:25:19;;;;;;;;;;;;;;;;;;4979430;28;135668;-68
2022/04/04 00:27:46;;;;;;;;;;;;;;;;;;4987560;28;128761;-68
2022/04/04 00:30:12;;;;;;;;;;;;;;;;;;4987954;28;133501;-68
2022/04/04 00:32:38;;;;;;;;;;;;;;;;;;4979454;28;137158;-68
2022/04/04 00:35:05;;;;;;;;;;;;;;;;;;4988983;28;106067;-68
2022/04/04 00:37:32;;;;;;;;;;;;;;;;;;4987447;28;136954;-68
2022/04/04 00:39:58;;;;;;;;;;;;;;;;;;4988120;28;137889;-67
2022/04/04 00:42:25;;;;;;;;;;;;;;;;;;4991093;28;129284;-70
2022/04/04 00:44:51;;;;;;;;;;;;;;;;;;4981064;28;135789;-67
2022/04/04 00:47:18;;;;;;;;;;;;;;;;;;4988064;28;128622;-69
2022/04/04 00:49:44;;;;;;;;;;;;;;;;;;4986072;28;138191;-70
2022/04/04 00:52:10;;;;;;;;;;;;;;;;;;4966321;28;136859;-68
2022/04/04 00:54:37;;;;;;;;;;;;;;;;;;4985555;28;106595;-68
2022/04/04 00:57:03;;;;;;;;;;;;;;;;;;4988246;28;137246;-68
2022/04/04 00:59:29;;;;;;;;;;;;;;;;;;4985482;28;137119;-70
2022/04/04 01:01:56;;;;;;;;;;;;;;;;;;4984299;28;129536;-70
2022/04/04 01:04:23;;;;;;;;;;;;;;;;;;4982866;28;135689;-70
2022/04/04 01:06:49;;;;;;;;;;;;;;;;;;4985859;28;129179;-70
2022/04/04 01:09:15;;;;;;;;;;;;;;;;;;4982411;28;132583;-67
2022/04/04 01:11:42;;;;;;;;;;;;;;;;;;4987041;28;122588;-67
2022/04/04 01:14:08;;;;;;;;;;;;;;;;;;4990839;22;130595;-67
2022/04/04 01:16:34;;;;;;;;;;;;;;;;;;5009350;28;130773;-70
2022/04/04 01:19:00;;;;;;;;;;;;;;;;;;4986319;28;135994;-70
2022/04/04 01:21:27;;;;;;;;;;;;;;;;;;5007055;27;105800;-70
2022/04/04 01:23:53;;;;;;;;;;;;;;;;;;5009219;28;137856;-70
2022/04/04 01:26:20;;;;;;;;;;;;;;;;;;5007563;28;129723;-69
2022/04/04 01:28:46;;;;;;;;;;;;;;;;;;5001423;28;106874;-68
2022/04/04 01:31:12;;;;;;;;;;;;;;;;;;5005655;28;135812;-68
2022/04/04 01:33:39;;;;;;;;;;;;;;;;;;5008563;28;128295;-68
2022/04/04 01:36:05;;;;;;;;;;;;;;;;;;5003575;28;122280;-68
2022/04/04 01:38:32;;;;;;;;;;;;;;;;;;4989854;28;137489;-68
2022/04/04 01:40:58;;;;;;;;;;;;;;;;;;5002245;28;130015;-68
2022/04/04 01:43:25;;;;;;;;;;;;;;;;;;5008321;28;106767;-68
2022/04/04 01:48:36;;;;;;;;;;;;;;;;;;4998061;28;137127;-68
2022/04/04 01:51:02;;;;;;;;;;;;;;;;;;5004848;28;137202;-68
2022/04/04 01:53:30;;;;;;;;;;;;;;;;;;5005325;28;110439;-68
2022/04/04 01:55:57;;;;;;;;;;;;;;;;;;5001739;28;134939;-68
2022/04/04 01:58:23;;;;;;;;;;;;;;;;;;5007577;28;137140;-68
2022/04/04 02:00:49;;;;;;;;;;;;;;;;;;5005653;28;123566;-68
2022/04/04 02:03:16;;;;;;;;;;;;;;;;;;5005075;28;137786;-68
2022/04/04 02:05:43;;;;;;;;;;;;;;;;;;5008039;28;136573;-68
2022/04/04 02:08:09;;;;;;;;;;;;;;;;;;5003543;28;130038;-68
2022/04/04 02:10:35;;;;;;;;;;;;;;;;;;5008064;27;130359;-68
2022/04/04 02:13:02;;;;;;;;;;;;;;;;;;5000891;27;129791;-68
2022/04/04 02:15:28;;;;;;;;;;;;;;;;;;5006568;28;134832;-68
2022/04/04 02:17:56;;;;;;;;;;;;;;;;;;4997697;28;107304;-67
2022/04/04 02:20:22;;;;;;;;;;;;;;;;;;4997071;27;128364;-68
2022/04/04 02:22:49;;;;;;;;;;;;;;;;;;5007452;27;109789;-68
2022/04/04 02:25:15;;;;;;;;;;;;;;;;;;5004843;28;137550;-68
2022/04/04 02:27:42;;;;;;;;;;;;;;;;;;5007562;28;129609;-68
2022/04/04 02:30:08;;;;;;;;;;;;;;;;;;5006755;28;137085;-67
2022/04/04 02:32:35;;;;;;;;;;;;;;;;;;5007722;28;106062;-68
2022/04/04 02:35:03;;;;;;;;;;;;;;;;;;5001040;28;106649;-68
2022/04/04 02:37:29;;;;;;;;;;;;;;;;;;5003618;28;138014;-68
2022/04/04 02:39:56;;;;;;;;;;;;;;;;;;4987343;28;129469;-68
2022/04/04 02:42:23;;;;;;;;;;;;;;;;;;5001545;28;135281;-68
2022/04/04 02:44:49;;;;;;;;;;;;;;;;;;4998172;28;137033;-68
2022/04/04 02:47:15;;;;;;;;;;;;;;;;;;5000181;28;129170;-68
2022/04/04 02:49:42;;;;;;;;;;;;;;;;;;4996203;28;134484;-68
2022/04/04 02:52:08;;;;;;;;;;;;;;;;;;5005084;28;135231;-68
2022/04/04 02:54:34;;;;;;;;;;;;;;;;;;5005069;28;133943;-68
2022/04/04 02:57:01;;;;;;;;;;;;;;;;;;5000343;27;131113;-67
2022/04/04 02:59:27;;;;;;;;;;;;;;;;;;4999852;27;127931;-68
2022/04/04 03:01:53;;;;;;;;;;;;;;;;;;5006704;27;135703;-70
2022/04/04 03:04:20;;;;;;;;;;;;;;;;;;4992368;28;136483;-69
2022/04/04 03:06:46;;;;;;;;;;;;;;;;;;5005035;28;129254;-69
2022/04/04 03:09:12;;;;;;;;;;;;;;;;;;5002913;27;134456;-69
2022/04/04 03:11:38;;;;;;;;;;;;;;;;;;5005464;28;125935;-70
2022/04/04 03:14:05;;;;;;;;;;;;;;;;;;5000099;28;137524;-70
2022/04/04 03:16:31;;;;;;;;;;;;;;;;;;4996682;28;135839;-69
2022/04/04 03:18:58;;;;;;;;;;;;;;;;;;5001669;27;128730;-70
2022/04/04 03:21:25;;;;;;;;;;;;;;;;;;5005806;28;127516;-70
2022/04/04 03:23:51;;;;;;;;;;;;;;;;;;5000915;28;135524;-69
2022/04/04 03:26:17;;;;;;;;;;;;;;;;;;5006287;28;129025;-68
2022/04/04 03:28:45;;;;;;;;;;;;;;;;;;5002849;28;136494;-68
2022/04/04 03:31:12;;;;;;;;;;;;;;;;;;5005140;27;137203;-68
2022/04/04 03:33:38;;;;;;;;;;;;;;;;;;5014025;28;129456;-68
2022/04/04 03:36:04;;;;;;;;;;;;;;;;;;5005576;28;136988;-68
2022/04/04 03:38:31;;;;;;;;;;;;;;;;;;5005685;27;124346;-68
2022/04/04 03:40:57;;;;;;;;;;;;;;;;;;5008953;28;134655;-68
2022/04/04 03:43:24;;;;;;;;;;;;;;;;;;5008003;28;137174;-68
2022/04/04 03:45:51;;;;;;;;;;;;;;;;;;5006579;28;130158;-68
2022/04/04 03:48:17;;;;;;;;;;;;;;;;;;5008800;27;135685;-68
2022/04/04 03:50:45;;;;;;;;;;;;;;;;;;5008596;28;122406;-68
2022/04/04 03:53:11;;;;;;;;;;;;;;;;;;5000717;28;128731;-68
2022/04/04 03:55:38;;;;;;;;;;;;;;;;;;5008763;28;136914;-68
2022/04/04 03:58:04;;;;;;;;;;;;;;;;;;5004790;28;129890;-69
2022/04/04 04:00:31;;;;;;;;;;;;;;;;;;5009593;28;135214;-69
2022/04/04 04:02:57;;;;;;;;;;;;;;;;;;5001902;28;137036;-68
2022/04/04 04:05:23;;;;;;;;;;;;;;;;;;5006463;28;127927;-68
2022/04/04 04:07:50;;;;;;;;;;;;;;;;;;5008620;28;136556;-68
2022/04/04 04:10:16;;;;;;;;;;;;;;;;;;5005429;27;137109;-68
2022/04/04 04:12:42;;;;;;;;;;;;;;;;;;5003657;28;130992;-69
2022/04/04 04:15:08;;;;;;;;;;;;;;;;;;5001676;28;135707;-68
2022/04/04 04:17:35;;;;;;;;;;;;;;;;;;5005299;28;136532;-68
2022/04/04 04:20:19;;;;;;;;;;;;;;;;;;5005046;28;106644;-68
2022/04/04 04:22:46;;;;;;;;;;;;;;;;;;4996552;28;135077;-68
2022/04/04 04:25:14;;;;;;;;;;;;;;;;;;5002582;28;128450;-68
2022/04/04 04:27:41;;;;;;;;;;;;;;;;;;5004816;27;133539;-68
2022/04/04 04:30:07;;;;;;;;;;;;;;;;;;5008644;28;136394;-68
2022/04/04 04:32:33;;;;;;;;;;;;;;;;;;5003207;28;128575;-69
2022/04/04 04:35:00;;;;;;;;;;;;;;;;;;5001583;28;136533;-68
2022/04/04 04:37:26;;;;;;;;;;;;;;;;;;5007364;27;122953;-68
2022/04/04 04:39:52;;;;;;;;;;;;;;;;;;5009141;28;129830;-68
2022/04/04 04:42:18;;;;;;;;;;;;;;;;;;4999867;28;134759;-68
2022/04/04 04:44:45;;;;;;;;;;;;;;;;;;5002944;28;129331;-68
2022/04/04 04:47:11;;;;;;;;;;;;;;;;;;5005860;27;134562;-68
2022/04/04 04:49:37;;;;;;;;;;;;;;;;;;5007183;28;129943;-68
2022/04/04 04:52:04;;;;;;;;;;;;;;;;;;5008061;28;130239;-68
2022/04/04 04:54:32;;;;;;;;;;;;;;;;;;5001664;28;106595;-70
2022/04/04 04:56:58;;;;;;;;;;;;;;;;;;5005361;27;109254;-67
2022/04/04 04:59:25;;;;;;;;;;;;;;;;;;5007926;28;128885;-70
2022/04/04 05:01:51;;;;;;;;;;;;;;;;;;5001092;28;107428;-70
2022/04/04 05:04:17;;;;;;;;;;;;;;;;;;5006405;28;129315;-70
2022/04/04 05:06:48;;;;;;;;;;;;;;;;;;5001960;27;134291;-68
2022/04/04 05:09:15;;;;;;;;;;;;;;;;;;5006197;27;108568;-68
2022/04/04 05:11:41;;;;;;;;;;;;;;;;;;4994906;28;129280;-68
2022/04/04 05:14:15;;;;;;;;;;;;;;;;;;5007886;28;106945;-68
2022/04/04 05:16:41;;;;;;;;;;;;;;;;;;5002823;28;135707;-68
2022/04/04 05:19:07;;;;;;;;;;;;;;;;;;5000495;28;128430;-68
2022/04/04 05:21:34;;;;;;;;;;;;;;;;;;5010031;27;136984;-68
2022/04/04 05:24:00;;;;;;;;;;;;;;;;;;4999777;28;125798;-68
2022/04/04 05:26:26;;;;;;;;;;;;;;;;;;5006124;28;135031;-68
2022/04/04 05:28:54;;;;;;;;;;;;;;;;;;5007932;28;138136;-68
2022/04/04 05:31:20;;;;;;;;;;;;;;;;;;5006913;27;129772;-68
2022/04/04 05:33:47;;;;;;;;;;;;;;;;;;5004564;28;106840;-68
2022/04/04 05:36:13;;;;;;;;;;;;;;;;;;4997819;28;135676;-68
2022/04/04 05:38:39;;;;;;;;;;;;;;;;;;4997486;28;127216;-68
2022/04/04 05:41:05;;;;;;;;;;;;;;;;;;5006257;27;135842;-68
2022/04/04 05:43:32;;;;;;;;;;;;;;;;;;4999394;28;135852;-68
2022/04/04 05:45:58;;;;;;;;;;;;;;;;;;5002479;28;139348;-68
2022/04/04 05:48:30;;;;;;;;;;;;;;;;;;5007965;28;119417;-69
2022/04/04 05:50:56;;;;;;;;;;;;;;;;;;5004405;27;127275;-68
2022/04/04 05:53:22;;;;;;;;;;;;;;;;;;5006574;27;136333;-68
2022/04/04 05:55:49;;;;;;;;;;;;;;;;;;4997664;28;136837;-68
2022/04/04 05:58:15;;;;;;;;;;;;;;;;;;5007443;28;126835;-68
2022/04/04 06:00:41;;;;;;;;;;;;;;;;;;4997268;27;137079;-68
2022/04/04 06:03:08;;;;;;;;;;;;;;;;;;5006537;28;137193;-70
2022/04/04 06:05:38;;;;;;;;;;;;;;;;;;5005520;28;123337;-67
2022/04/04 06:08:04;;;;;;;;;;;;;;;;;;4999562;28;137768;-69
2022/04/04 06:10:30;;;;;;;;;;;;;;;;;;5001035;27;106998;-68
2022/04/04 06:12:56;;;;;;;;;;;;;;;;;;5007062;28;135167;-68
2022/04/04 06:15:23;;;;;;;;;;;;;;;;;;5005643;28;140034;-68
2022/04/04 06:17:49;;;;;;;;;;;;;;;;;;5003298;28;129037;-68
2022/04/04 06:20:16;;;;;;;;;;;;;;;;;;5005573;27;135424;-68
2022/04/04 06:22:42;;;;;;;;;;;;;;;;;;5004932;28;136353;-69
2022/04/04 06:25:08;;;;;;;;;;;;;;;;;;5004591;28;127601;-68
2022/04/04 06:27:35;;;;;;;;;;;;;;;;;;5011577;28;136883;-72
2022/04/04 06:30:01;;;;;;;;;;;;;;;;;;4996864;27;127998;-70
2022/04/04 06:32:27;;;;;;;;;;;;;;;;;;4980437;28;135429;-68
2022/04/04 06:34:53;;;;;;;;;;;;;;;;;;4987076;28;137763;-70
2022/04/04 06:37:20;;;;;;;;;;;;;;;;;;5006020;28;129232;-69
2022/04/04 06:39:46;;;;;;;;;;;;;;;;;;5006269;28;135347;-70
2022/04/04 06:42:12;;;;;;;;;;;;;;;;;;5004583;27;135724;-70
2022/04/04 06:44:39;;;;;;;;;;;;;;;;;;5004716;28;106836;-70
2022/04/04 06:47:05;;;;;;;;;;;;;;;;;;5002502;28;125974;-70
2022/04/04 06:49:32;;;;;;;;;;;;;;;;;;5007435;28;126439;-70
2022/04/04 06:51:58;;;;;;;;;;;;;;;;;;5003231;27;136049;-69
2022/04/04 06:54:24;;;;;;;;;;;;;;;;;;5000662;28;135659;-70
2022/04/04 06:56:52;;;;;;;;;;;;;;;;;;5005862;28;128048;-69
2022/04/04 06:59:18;;;;;;;;;;;;;;;;;;5000527;28;137468;-70
2022/04/04 07:01:45;;;;;;;;;;;;;;;;;;4997854;28;136036;-75
2022/04/04 07:04:11;;;;;;;;;;;;;;;;;;5001506;28;127822;-70
2022/04/04 07:06:37;;;;;;;;;;;;;;;;;;5003232;28;119435;-69
2022/04/04 07:09:03;;;;;;;;;;;;;;;;;;5002101;28;137195;-70
2022/04/04 07:11:30;;;;;;;;;;;;;;;;;;5004740;28;129091;-68
2022/04/04 07:13:56;;;;;;;;;;;;;;;;;;5002017;28;120929;-68
2022/04/04 07:16:22;;;;;;;;;;;;;;;;;;5005963;28;126881;-70
2022/04/04 07:18:49;;;;;;;;;;;;;;;;;;5003629;28;136144;-69
2022/04/04 07:21:15;;;;;;;;;;;;;;;;;;5002744;28;137119;-67
2022/04/04 07:23:42;;;;;;;;;;;;;;;;;;5004109;28;129691;-70
2022/04/04 07:26:08;;;;;;;;;;;;;;;;;;4994972;28;136798;-69
2022/04/04 07:28:34;;;;;;;;;;;;;;;;;;4999542;28;137964;-70
2022/04/04 07:31:01;;;;;;;;;;;;;;;;;;5000419;27;112173;-68
2022/04/04 07:33:27;;;;;;;;;;;;;;;;;;5002963;28;135667;-67
2022/04/04 07:35:54;;;;;;;;;;;;;;;;;;4986610;28;129620;-70
2022/04/04 07:38:20;;;;;;;;;;;;;;;;;;5005903;28;135955;-76
2022/04/04 07:40:47;;;;;;;;;;;;;;;;;;4993274;28;123569;-69
2022/04/04 07:43:13;;;;;;;;;;;;;;;;;;4999643;28;128039;-67
2022/04/04 07:45:39;;;;;;;;;;;;;;;;;;5005517;28;135362;-68
2022/04/04 07:48:10;;;;;;;;;;;;;;;;;;5002289;28;136936;-68
2022/04/04 07:50:36;;;;;;;;;;;;;;;;;;5002030;28;116200;-68
2022/04/04 07:53:03;;;;;;;;;;;;;;;;;;5009287;28;136710;-67
2022/04/04 07:55:30;;;;;;;;;;;;;;;;;;5000398;28;130498;-67
2022/04/04 07:57:56;;;;;;;;;;;;;;;;;;5002801;28;135287;-66
2022/04/04 08:00:24;;;;;;;;;;;;;;;;;;5004875;28;136228;-68
2022/04/04 08:02:51;;;;;;;;;;;;;;;;;;5002024;28;130096;-68
2022/04/04 08:05:17;;;;;;;;;;;;;;;;;;4995250;28;135910;-67
2022/04/04 08:07:47;;;;;;;;;;;;;;;;;;4996739;28;135437;-67
2022/04/04 08:10:14;;;;;;;;;;;;;;;;;;5003018;28;130454;-68
2022/04/04 08:12:40;;;;;;;;;;;;;;;;;;5006400;28;125680;-67
2022/04/04 08:15:07;;;;;;;;;;;;;;;;;;5007324;28;112795;-68
2022/04/04 08:17:33;;;;;;;;;;;;;;;;;;5004525;28;134703;-68
2022/04/04 08:19:59;;;;;;;;;;;;;;;;;;5003759;28;137153;-68
2022/04/04 08:22:25;;;;;;;;;;;;;;;;;;5003941;27;129366;-68
2022/04/04 08:24:52;;;;;;;;;;;;;;;;;;5007126;28;136387;-68
2022/04/04 08:27:18;;;;;;;;;;;;;;;;;;4996909;28;138333;-68
2022/04/04 08:29:44;;;;;;;;;;;;;;;;;;5006597;28;128674;-68
2022/04/04 08:32:11;;;;;;;;;;;;;;;;;;5007940;28;106619;-67
2022/04/04 08:34:38;;;;;;;;;;;;;;;;;;5008323;28;138104;-68
2022/04/04 08:37:04;;;;;;;;;;;;;;;;;;5006511;28;129219;-68
2022/04/04 08:39:30;;;;;;;;;;;;;;;;;;4995517;27;137796;-68
2022/04/04 08:41:57;;;;;;;;;;;;;;;;;;5009274;28;129066;-68
2022/04/04 08:44:23;;;;;;;;;;;;;;;;;;4990064;28;136750;-69
2022/04/04 08:46:49;;;;;;;;;;;;;;;;;;5005550;27;137116;-67
2022/04/04 08:49:16;;;;;;;;;;;;;;;;;;5008551;28;129143;-69
2022/04/04 08:51:42;;;;;;;;;;;;;;;;;;5006844;28;136664;-69
2022/04/04 08:54:08;;;;;;;;;;;;;;;;;;5007362;28;136093;-68
2022/04/04 08:56:34;;;;;;;;;;;;;;;;;;5003080;28;129823;-69
2022/04/04 08:59:01;;;;;;;;;;;;;;;;;;4996651;27;137665;-68
2022/04/04 09:01:27;;;;;;;;;;;;;;;;;;4992984;27;127672;-67
2022/04/04 09:03:54;;;;;;;;;;;;;;;;;;4998310;28;137129;-69
2022/04/04 09:06:20;;;;;;;;;;;;;;;;;;5004679;28;138110;-68
2022/04/04 09:08:48;;;;;;;;;;;;;;;;;;4981894;28;127350;-70
2022/04/04 09:11:14;;;;;;;;;;;;;;;;;;5000219;28;108670;-69
2022/04/04 09:13:41;;;;;;;;;;;;;;;;;;5005348;27;137047;-68
2022/04/04 09:16:07;;;;;;;;;;;;;;;;;;5000535;27;127977;-67
2022/04/04 09:18:34;;;;;;;;;;;;;;;;;;4999793;27;108163;-68
2022/04/04 09:21:01;;;;;;;;;;;;;;;;;;4997484;28;109846;-67
2022/04/04 09:23:27;;;;;;;;;;;;;;;;;;4995317;27;130187;-68
2022/04/04 09:25:53;;;;;;;;;;;;;;;;;;4992030;27;107482;-67
2022/04/04 09:28:20;;;;;;;;;;;;;;;;;;4992905;27;129080;-67
2022/04/04 09:30:46;;;;;;;;;;;;;;;;;;4991155;28;136310;-67
2022/04/04 09:33:12;;;;;;;;;;;;;;;;;;5003419;28;137878;-67
2022/04/04 09:35:39;;;;;;;;;;;;;;;;;;4994237;27;128432;-67
2022/04/04 09:38:05;;;;;;;;;;;;;;;;;;5002669;27;136551;-67
2022/04/04 09:40:31;;;;;;;;;;;;;;;;;;5009438;28;137068;-66
2022/04/04 09:42:58;;;;;;;;;;;;;;;;;;5000295;27;135421;-68
2022/04/04 09:45:24;;;;;;;;;;;;;;;;;;4997033;28;136702;-66
2022/04/04 09:47:51;;;;;;;;;;;;;;;;;;5002476;28;129033;-70
2022/04/04 09:50:17;;;;;;;;;;;;;;;;;;4996613;28;136623;-65
2022/04/04 09:52:43;;;;;;;;;;;;;;;;;;5005239;28;135857;-69
2022/04/04 09:55:09;;;;;;;;;;;;;;;;;;5002579;28;129806;-69
2022/04/04 09:57:36;;;;;;;;;;;;;;;;;;5002036;28;135413;-65
2022/04/04 10:00:03;;;;;;;;;;;;;;;;;;5006321;28;137453;-64
2022/04/04 10:02:37;;;;;;;;;;;;;;;;;;5008028;27;105968;-66
2022/04/04 10:05:03;;;;;;;;;;;;;;;;;;4999459;28;135418;-65
2022/04/04 10:07:29;;;;;;;;;;;;;;;;;;5003915;28;124914;-65
2022/04/04 10:09:56;;;;;;;;;;;;;;;;;;4999845;28;122867;-65
2022/04/04 10:12:22;;;;;;;;;;;;;;;;;;5001129;28;137380;-65
2022/04/04 10:14:49;;;;;;;;;;;;;;;;;;4983564;28;106172;-65
2022/04/04 10:17:15;;;;;;;;;;;;;;;;;;5003734;28;117364;-65
2022/04/04 10:19:42;;;;;;;;;;;;;;;;;;5004811;28;135302;-64
2022/04/04 10:22:08;;;;;;;;;;;;;;;;;;5001528;27;128873;-66
2022/04/04 10:24:35;;;;;;;;;;;;;;;;;;4995277;28;107375;-65
2022/04/04 10:27:08;;;;;;;;;;;;;;;;;;4994277;27;129863;-66
2022/04/04 10:29:35;;;;;;;;;;;;;;;;;;5001293;28;136931;-66
2022/04/04 10:32:02;;;;;;;;;;;;;;;;;;4997054;27;139220;-66
2022/04/04 10:34:28;;;;;;;;;;;;;;;;;;4997505;27;128059;-65
2022/04/04 10:36:55;;;;;;;;;;;;;;;;;;5001538;28;134775;-65
2022/04/04 10:39:21;;;;;;;;;;;;;;;;;;4996352;27;138199;-64
2022/04/04 10:41:48;;;;;;;;;;;;;;;;;;4993661;28;129318;-65
2022/04/04 10:44:16;;;;;;;;;;;;;;;;;;4997124;28;134325;-67
2022/04/04 10:46:43;;;;;;;;;;;;;;;;;;5003503;27;137484;-64
2022/04/04 10:49:09;;;;;;;;;;;;;;;;;;4999974;28;135318;-66
2022/04/04 10:51:35;;;;;;;;;;;;;;;;;;4999498;28;136989;-66
2022/04/04 10:54:01;;;;;;;;;;;;;;;;;;5005984;28;129462;-66
2022/04/04 10:56:28;;;;;;;;;;;;;;;;;;4997588;28;125278;-66
2022/04/04 10:58:54;;;;;;;;;;;;;;;;;;5000996;28;137910;-66
2022/04/04 11:01:21;;;;;;;;;;;;;;;;;;5002499;27;126615;-65
2022/04/04 11:03:47;;;;;;;;;;;;;;;;;;4996120;28;137133;-66
2022/04/04 11:08:59;;;;;;;;;;;;;;;;;;4996741;28;107507;-66
2022/04/04 11:11:27;;;;;;;;;;;;;;;;;;5003686;28;107239;-66
2022/04/04 11:13:53;;;;;;;;;;;;;;;;;;5000273;27;128162;-66
2022/04/04 11:16:20;;;;;;;;;;;;;;;;;;4991765;28;136075;-65
2022/04/04 11:18:47;;;;;;;;;;;;;;;;;;5002163;28;106482;-64
2022/04/04 11:21:13;;;;;;;;;;;;;;;;;;4978010;28;128431;-65
2022/04/04 11:23:39;;;;;;;;;;;;;;;;;;5001231;28;137286;-65
2022/04/04 11:26:08;;;;;;;;;;;;;;;;;;4995378;28;137021;-66
2022/04/04 11:28:38;;;;;;;;;;;;;;;;;;4998835;28;127301;-71
2022/04/04 11:31:05;;;;;;;;;;;;;;;;;;4995982;28;134100;-69
2022/04/04 11:33:34;;;;;;;;;;;;;;;;;;4981559;28;128159;-68
2022/04/04 11:36:03;;;;;;;;;;;;;;;;;;5002717;28;136546;-68
2022/04/04 11:38:29;;;;;;;;;;;;;;;;;;4989032;28;136801;-66
2022/04/04 11:41:24;;;;;;;;;;;;;;;;;;5004601;28;130521;-67
2022/04/04 11:43:42;;;;;;;;;;;;;;;;;;4994552;28;139423;-67
2022/04/04 11:46:08;;;;;;;;;;;;;;;;;;5001143;28;135937;-67
2022/04/04 11:48:39;;;;;;;;;;;;;;;;;;5000928;28;129408;-67
2022/04/04 11:51:31;;;;;;;;;;;;;;;;;;5003895;27;107415;-65
2022/04/04 11:53:57;;;;;;;;;;;;;;;;;;4995234;28;129369;-66
2022/04/04 11:56:23;;;;;;;;;;;;;;;;;;4994641;28;137361;-66
2022/04/04 11:58:51;;;;;;;;;;;;;;;;;;5006265;28;136363;-67
2022/04/04 12:01:17;;;;;;;;;;;;;;;;;;4998561;28;127946;-68
2022/04/04 12:04:13;;;;;;;;;;;;;;;;;;;;;
2022/04/04 12:07:03;;;;;;;;;;;;;;;;;;5001234;28;119913;-67
2022/04/04 12:09:20;;;;;;;;;;;;;;;;;;4997058;27;132201;-67
2022/04/04 12:11:47;;;;;;;;;;;;;;;;;;5000223;28;135475;-67
2022/04/04 12:14:13;;;;;;;;;;;;;;;;;;5003375;28;134275;-66
2022/04/04 12:16:39;;;;;;;;;;;;;;;;;;4990472;28;108388;-67
2022/04/04 12:19:08;;;;;;;;;;;;;;;;;;5007728;28;107475;-68
2022/04/04 12:21:34;;;;;;;;;;;;;;;;;;4996795;28;128039;-71
2022/04/04 12:26:45;;;;;;;;;;;;;;;;;;5002707;28;136864;-66
2022/04/04 12:29:12;;;;;;;;;;;;;;;;;;5008436;28;127830;-65
2022/04/04 12:31:38;;;;;;;;;;;;;;;;;;5003508;28;137777;-65
2022/04/04 12:34:06;;;;;;;;;;;;;;;;;;5005187;28;133696;-66
2022/04/04 12:36:35;;;;;;;;;;;;;;;;;;4995970;28;127237;-65
2022/04/04 12:39:02;;;;;;;;;;;;;;;;;;4982092;28;116008;-66
2022/04/04 12:41:28;;;;;;;;;;;;;;;;;;5003058;28;130020;-67
2022/04/04 12:43:54;;;;;;;;;;;;;;;;;;5005391;28;135645;-65
2022/04/04 12:46:21;;;;;;;;;;;;;;;;;;4993416;28;108255;-65
2022/04/04 12:48:47;;;;;;;;;;;;;;;;;;5000373;28;129288;-66
2022/04/04 12:51:13;;;;;;;;;;;;;;;;;;4981049;28;134730;-65
2022/04/04 12:53:40;;;;;;;;;;;;;;;;;;5001197;28;137067;-66
2022/04/04 12:56:11;;;;;;;;;;;;;;;;;;5002902;28;129416;-66
2022/04/04 12:58:37;;;;;;;;;;;;;;;;;;5011575;28;132050;-65
2022/04/04 13:01:08;;;;;;;;;;;;;;;;;;5009010;28;127244;-65
2022/04/04 13:03:34;;;;;;;;;;;;;;;;;;5005350;28;134622;-65
2022/04/04 13:06:01;;;;;;;;;;;;;;;;;;5000296;28;137937;-67
2022/04/04 13:08:27;;;;;;;;;;;;;;;;;;5006352;28;128831;-65
2022/04/04 13:10:53;;;;;;;;;;;;;;;;;;4999886;28;136631;-65
2022/04/04 13:13:20;;;;;;;;;;;;;;;;;;5000959;28;137115;-65
2022/04/04 13:15:47;;;;;;;;;;;;;;;;;;5000586;28;116978;-65
2022/04/04 13:18:34;;;;;;;;;;;;;;;;;;5004128;28;108087;-64
2022/04/04 13:21:00;;;;;;;;;;;;;;;;;;5008766;28;136050;-65
2022/04/04 13:23:26;;;;;;;;;;;;;;;;;;5004979;28;136926;-66
2022/04/04 13:25:53;;;;;;;;;;;;;;;;;;4999326;28;129946;-66
2022/04/04 13:28:19;;;;;;;;;;;;;;;;;;4999390;28;129347;-66
2022/04/04 13:30:46;;;;;;;;;;;;;;;;;;4997128;28;136571;-66
2022/04/04 13:33:17;;;;;;;;;;;;;;;;;;5007273;28;138322;-65
2022/04/04 13:35:44;;;;;;;;;;;;;;;;;;4998813;28;127471;-65
2022/04/04 13:38:10;;;;;;;;;;;;;;;;;;4980549;28;136074;-65
2022/04/04 13:40:37;;;;;;;;;;;;;;;;;;5002674;28;110953;-65
2022/04/04 13:43:03;;;;;;;;;;;;;;;;;;4999299;28;137658;-65
2022/04/04 13:45:30;;;;;;;;;;;;;;;;;;4999999;28;137162;-66
2022/04/04 13:47:56;;;;;;;;;;;;;;;;;;4999400;28;126544;-66
2022/04/04 13:50:22;;;;;;;;;;;;;;;;;;5000791;28;135456;-66
2022/04/04 13:52:49;;;;;;;;;;;;;;;;;;4999474;28;127771;-66
2022/04/04 13:55:15;;;;;;;;;;;;;;;;;;5000210;28;129329;-64
2022/04/04 13:57:41;;;;;;;;;;;;;;;;;;5005933;28;136230;-66
2022/04/04 14:00:08;;;;;;;;;;;;;;;;;;5004604;28;136782;-66
2022/04/04 14:02:43;;;;;;;;;;;;;;;;;;5002016;28;106105;-66
2022/04/04 14:05:11;;;;;;;;;;;;;;;;;;5001332;28;130669;-66
2022/04/04 14:07:50;;;;;;;;;;;;;;;;;;5005086;28;126726;-66
2022/04/04 14:10:17;;;;;;;;;;;;;;;;;;5005733;28;119937;-65
2022/04/04 14:12:43;;;;;;;;;;;;;;;;;;4998744;28;136396;-66
2022/04/04 14:15:10;;;;;;;;;;;;;;;;;;4998244;27;117485;-66
2022/04/04 14:17:37;;;;;;;;;;;;;;;;;;5003858;28;137104;-64
2022/04/04 14:20:03;;;;;;;;;;;;;;;;;;4994076;28;136763;-64
2022/04/04 14:22:30;;;;;;;;;;;;;;;;;;5005203;28;117943;-65
2022/04/04 14:24:57;;;;;;;;;;;;;;;;;;4997685;28;137278;-63
2022/04/04 14:27:24;;;;;;;;;;;;;;;;;;5004815;28;106695;-66
2022/04/04 14:29:50;;;;;;;;;;;;;;;;;;5002391;28;136385;-66
2022/04/04 14:32:16;;;;;;;;;;;;;;;;;;5001202;28;136314;-64
2022/04/04 14:34:43;;;;;;;;;;;;;;;;;;4998111;28;114404;-66
2022/04/04 14:37:09;;;;;;;;;;;;;;;;;;5004719;28;136972;-66
2022/04/04 14:39:35;;;;;;;;;;;;;;;;;;4995619;28;137745;-67
2022/04/04 14:42:02;;;;;;;;;;;;;;;;;;4996718;28;119855;-64
2022/04/04 14:44:28;;;;;;;;;;;;;;;;;;4995418;28;137351;-65
2022/04/04 14:46:54;;;;;;;;;;;;;;;;;;5001048;28;108753;-66
2022/04/04 14:49:41;;;;;;;;;;;;;;;;;;4998008;28;107417;-65
2022/04/04 14:52:07;;;;;;;;;;;;;;;;;;4994644;28;133872;-65
2022/04/04 14:54:35;;;;;;;;;;;;;;;;;;4997690;28;127069;-66
2022/04/04 14:57:02;;;;;;;;;;;;;;;;;;4993370;28;136351;-65
2022/04/04 14:59:29;;;;;;;;;;;;;;;;;;4995223;28;109281;-63
2022/04/04 15:01:56;;;;;;;;;;;;;;;;;;4998751;28;132363;-65
2022/04/04 15:04:24;;;;;;;;;;;;;;;;;;4995542;28;135687;-64
2022/04/04 15:06:50;;;;;;;;;;;;;;;;;;4993655;28;137585;-66
2022/04/04 15:09:18;;;;;;;;;;;;;;;;;;4997839;28;123666;-63
2022/04/04 15:11:45;;;;;;;;;;;;;;;;;;4993956;28;133139;-65
2022/04/04 15:14:11;;;;;;;;;;;;;;;;;;4998349;28;129458;-66
2022/04/04 15:16:37;;;;;;;;;;;;;;;;;;5003148;28;117090;-66
2022/04/04 15:19:04;;;;;;;;;;;;;;;;;;5002259;28;136101;-65
2022/04/04 15:21:31;;;;;;;;;;;;;;;;;;4999685;28;129131;-66
2022/04/04 15:23:57;;;;;;;;;;;;;;;;;;5003044;27;136203;-65
2022/04/04 15:26:29;;;;;;;;;;;;;;;;;;4982066;28;138485;-65
2022/04/04 15:28:55;;;;;;;;;;;;;;;;;;5003963;28;128587;-65
2022/04/04 15:31:22;;;;;;;;;;;;;;;;;;5007149;28;119474;-66
2022/04/04 15:33:49;;;;;;;;;;;;;;;;;;5002568;28;127948;-65
2022/04/04 15:36:15;;;;;;;;;;;;;;;;;;5007721;28;136343;-66
2022/04/04 15:38:42;;;;;;;;;;;;;;;;;;5003186;28;134796;-65
2022/04/04 15:41:08;;;;;;;;;;;;;;;;;;4989348;28;123173;-65
2022/04/04 15:43:35;;;;;;;;;;;;;;;;;;5008811;28;118276;-65
2022/04/04 15:46:01;;;;;;;;;;;;;;;;;;4989963;28;139053;-65
2022/04/04 15:48:28;;;;;;;;;;;;;;;;;;5005837;28;129415;-65
2022/04/04 15:50:55;;;;;;;;;;;;;;;;;;5010037;28;134067;-66
2022/04/04 15:53:21;;;;;;;;;;;;;;;;;;5008322;28;128529;-66
2022/04/04 15:55:47;;;;;;;;;;;;;;;;;;5002512;27;136680;-64
2022/04/04 15:58:15;;;;;;;;;;;;;;;;;;5003389;28;108492;-64
2022/04/04 16:00:42;;;;;;;;;;;;;;;;;;4994805;28;129718;-64
2022/04/04 16:03:08;;;;;;;;;;;;;;;;;;5004278;27;136268;-64
2022/04/04 16:05:34;;;;;;;;;;;;;;;;;;5005430;28;137151;-64
2022/04/04 16:08:02;;;;;;;;;;;;;;;;;;5006178;28;130647;-64
2022/04/04 16:10:28;;;;;;;;;;;;;;;;;;4997719;27;138720;-64
2022/04/04 16:12:55;;;;;;;;;;;;;;;;;;5007909;27;126598;-66
2022/04/04 16:15:21;;;;;;;;;;;;;;;;;;4997228;28;137490;-65
2022/04/04 16:17:48;;;;;;;;;;;;;;;;;;5003937;27;107002;-65
2022/04/04 16:20:14;;;;;;;;;;;;;;;;;;5002515;27;129845;-65
2022/04/04 16:22:43;;;;;;;;;;;;;;;;;;4999273;28;128571;-65
2022/04/04 16:25:09;;;;;;;;;;;;;;;;;;4992782;28;126175;-66
2022/04/04 16:27:36;;;;;;;;;;;;;;;;;;5001933;28;105660;-65
2022/04/04 16:30:02;;;;;;;;;;;;;;;;;;5001636;28;135338;-64
2022/04/04 16:32:28;;;;;;;;;;;;;;;;;;4999372;27;135639;-66
2022/04/04 16:34:55;;;;;;;;;;;;;;;;;;5008812;28;130072;-65